createdAt,value
2017-09-02T00:00:49.551Z,82.60
2017-09-02T00:03:17.739Z,82.80
2017-09-02T00:05:45.259Z,82.20
2017-09-02T00:08:12.759Z,82.40
2017-09-02T00:10:40.287Z,82.50
2017-09-02T00:13:07.779Z,82.10
2017-09-02T00:15:35.320Z,82.40
2017-09-02T00:18:02.845Z,82.50
2017-09-02T00:20:30.369Z,82.40
2017-09-02T00:22:57.888Z,82.40
2017-09-02T00:25:25.381Z,82.40
2017-09-02T00:27:52.892Z,82.20
2017-09-02T00:30:20.391Z,82.50
2017-09-02T00:32:47.939Z,82.30
2017-09-02T00:35:15.434Z,82.70
2017-09-02T00:37:42.956Z,83.10
2017-09-02T00:40:10.490Z,83.10
2017-09-02T00:42:38.000Z,83.00
2017-09-02T00:45:05.491Z,82.70
2017-09-02T00:47:33.021Z,82.60
2017-09-02T00:50:00.514Z,82.20
2017-09-02T00:52:28.015Z,82.00
2017-09-02T00:54:55.537Z,82.00
2017-09-02T00:57:23.099Z,81.70
2017-09-02T00:59:50.596Z,81.70
2017-09-02T01:02:18.096Z,81.70
2017-09-02T01:04:45.612Z,81.90
2017-09-02T01:07:13.131Z,82.10
2017-09-02T01:09:40.621Z,82.40
2017-09-02T01:12:08.202Z,82.30
2017-09-02T01:14:35.758Z,82.50
2017-09-02T01:17:03.305Z,82.70
2017-09-02T01:19:30.828Z,82.60
2017-09-02T01:21:58.356Z,82.50
2017-09-02T01:24:25.872Z,82.70
2017-09-02T01:26:53.367Z,83.20
2017-09-02T01:29:20.893Z,82.60
2017-09-02T01:31:48.397Z,82.20
2017-09-02T01:34:15.908Z,82.30
2017-09-02T01:36:43.424Z,82.50
2017-09-02T01:39:10.924Z,82.40
2017-09-02T01:41:38.428Z,82.90
2017-09-02T01:44:05.941Z,83.20
2017-09-02T01:46:33.486Z,83.10
2017-09-02T01:49:01.027Z,83.00
2017-09-02T01:51:28.544Z,83.00
2017-09-02T01:53:56.076Z,83.20
2017-09-02T01:56:23.569Z,83.10
2017-09-02T01:58:51.086Z,83.20
2017-09-02T02:01:18.577Z,83.60
2017-09-02T02:03:46.151Z,83.90
2017-09-02T02:06:13.636Z,83.90
2017-09-02T02:08:41.396Z,83.60
2017-09-02T02:11:08.952Z,83.70
2017-09-02T02:13:36.521Z,84.10
2017-09-02T02:16:04.076Z,84.30
2017-09-02T02:18:31.628Z,84.00
2017-09-02T02:20:59.161Z,84.10
2017-09-02T02:23:26.679Z,84.30
2017-09-02T02:25:54.205Z,84.70
2017-09-02T02:28:21.798Z,85.10
2017-09-02T02:30:49.312Z,85.10
2017-09-02T02:33:16.837Z,85.10
2017-09-02T02:35:44.368Z,84.70
2017-09-02T02:38:11.900Z,84.70
2017-09-02T02:40:39.461Z,84.50
2017-09-02T02:43:06.972Z,84.60
2017-09-02T02:45:34.476Z,84.40
2017-09-02T02:48:02.030Z,84.20
2017-09-02T02:50:29.660Z,84.20
2017-09-02T02:52:57.155Z,84.40
2017-09-02T02:55:24.768Z,84.20
2017-09-02T02:57:52.335Z,84.40
2017-09-02T03:00:19.842Z,84.60
2017-09-02T03:02:47.365Z,84.70
2017-09-02T03:05:14.864Z,84.60
2017-09-02T03:07:42.407Z,84.50
2017-09-02T03:10:09.906Z,84.60
2017-09-02T03:12:37.432Z,84.50
2017-09-02T03:15:04.943Z,84.60
2017-09-02T03:17:32.484Z,84.90
2017-09-02T03:20:00.004Z,85.20
2017-09-02T03:22:27.547Z,85.30
2017-09-02T03:24:55.093Z,85.50
2017-09-02T03:27:22.655Z,85.80
2017-09-02T03:29:50.181Z,86.30
2017-09-02T03:32:17.694Z,85.70
2017-09-02T03:34:45.194Z,85.30
2017-09-02T03:37:12.749Z,85.20
2017-09-02T03:39:40.308Z,85.40
2017-09-02T03:42:07.856Z,85.20
2017-09-02T03:44:35.400Z,85.60
2017-09-02T03:47:02.953Z,85.30
2017-09-02T03:49:30.485Z,85.10
2017-09-02T03:51:58.000Z,86.00
2017-09-02T03:54:25.533Z,85.80
2017-09-02T03:56:53.074Z,85.70
2017-09-02T03:59:20.622Z,85.80
2017-09-02T04:01:48.141Z,86.00
2017-09-02T04:04:15.664Z,85.80
2017-09-02T04:06:43.205Z,85.20
2017-09-02T04:09:10.713Z,84.80
2017-09-02T04:11:38.213Z,84.80
2017-09-02T04:14:05.760Z,84.60
2017-09-02T04:16:33.322Z,84.50
2017-09-02T04:19:00.837Z,85.30
2017-09-02T04:21:28.340Z,85.00
2017-09-02T04:23:55.865Z,85.40
2017-09-02T04:26:23.386Z,85.50
2017-09-02T04:28:50.912Z,85.40
2017-09-02T04:31:18.429Z,85.20
2017-09-02T04:33:45.960Z,85.20
2017-09-02T04:36:13.498Z,85.60
2017-09-02T04:38:41.021Z,85.50
2017-09-02T04:41:08.549Z,85.50
2017-09-02T04:43:36.127Z,85.20
2017-09-02T04:46:03.647Z,85.00
2017-09-02T04:48:31.177Z,84.70
2017-09-02T04:50:58.702Z,85.10
2017-09-02T04:53:26.257Z,85.00
2017-09-02T04:55:53.788Z,85.20
2017-09-02T04:58:21.330Z,85.40
2017-09-02T05:00:49.037Z,84.40
2017-09-02T05:03:16.598Z,84.70
2017-09-02T05:05:44.165Z,84.80
2017-09-02T05:08:11.724Z,84.80
2017-09-02T05:10:39.267Z,85.30
2017-09-02T05:13:06.839Z,85.40
2017-09-02T05:15:34.373Z,85.30
2017-09-02T05:18:01.906Z,85.00
2017-09-02T05:20:29.476Z,84.80
2017-09-02T05:22:56.984Z,84.70
2017-09-02T05:25:24.564Z,84.80
2017-09-02T05:27:52.089Z,84.40
2017-09-02T05:30:19.611Z,85.00
2017-09-02T05:32:47.248Z,85.00
2017-09-02T05:35:15.363Z,84.70
2017-09-02T05:37:42.975Z,84.80
2017-09-02T05:40:10.492Z,85.10
2017-09-02T05:42:38.056Z,85.30
2017-09-02T05:45:05.594Z,85.30
2017-09-02T05:47:33.199Z,85.10
2017-09-02T05:50:00.716Z,85.30
2017-09-02T05:52:28.276Z,84.80
2017-09-02T05:54:55.819Z,84.70
2017-09-02T05:57:23.356Z,84.60
2017-09-02T05:59:50.901Z,84.40
2017-09-02T06:02:18.440Z,84.10
2017-09-02T06:04:45.977Z,83.90
2017-09-02T06:07:13.533Z,83.70
2017-09-02T06:09:41.059Z,83.10
2017-09-02T06:12:08.597Z,83.40
2017-09-02T06:14:36.447Z,83.30
2017-09-02T06:17:03.964Z,83.00
2017-09-02T06:19:31.475Z,83.20
2017-09-02T06:21:59.002Z,83.10
2017-09-02T06:24:26.551Z,82.90
2017-09-02T06:26:54.428Z,83.10
2017-09-02T06:29:21.938Z,83.00
2017-09-02T06:31:49.562Z,83.50
2017-09-02T06:34:17.113Z,83.50
2017-09-02T06:36:44.695Z,83.50
2017-09-02T06:39:12.476Z,83.50
2017-09-02T06:41:40.192Z,83.70
2017-09-02T06:44:07.842Z,84.00
2017-09-02T06:46:35.601Z,83.90
2017-09-02T06:49:03.288Z,83.80
2017-09-02T06:51:31.004Z,83.80
2017-09-02T06:53:58.653Z,83.90
2017-09-02T06:56:26.333Z,83.60
2017-09-02T06:58:53.890Z,83.50
2017-09-02T07:01:21.559Z,83.90
2017-09-02T07:03:49.100Z,84.00
2017-09-02T07:06:16.692Z,83.90
2017-09-02T07:08:44.248Z,83.70
2017-09-02T07:11:11.783Z,83.50
2017-09-02T07:13:39.275Z,83.50
2017-09-02T07:16:06.854Z,83.60
2017-09-02T07:18:34.386Z,83.80
2017-09-02T07:21:01.953Z,83.70
2017-09-02T07:23:29.501Z,83.90
2017-09-02T07:25:57.037Z,84.00
2017-09-02T07:28:24.545Z,83.60
2017-09-02T07:30:52.105Z,83.80
2017-09-02T07:33:19.659Z,83.90
2017-09-02T07:35:47.203Z,83.90
2017-09-02T07:38:14.760Z,83.90
2017-09-02T07:40:42.331Z,83.70
2017-09-02T07:43:09.848Z,83.80
2017-09-02T07:45:37.345Z,83.60
2017-09-02T07:48:04.888Z,83.30
2017-09-02T07:50:32.448Z,82.90
2017-09-02T07:53:00.009Z,82.60
2017-09-02T07:55:28.559Z,82.70
2017-09-02T07:57:56.108Z,82.70
2017-09-02T08:00:23.659Z,82.90
2017-09-02T08:02:51.236Z,82.70
2017-09-02T08:05:18.799Z,82.50
2017-09-02T08:07:46.311Z,82.20
2017-09-02T08:10:13.913Z,82.10
2017-09-02T08:12:41.486Z,81.60
2017-09-02T08:15:10.211Z,81.70
2017-09-02T08:17:37.760Z,81.90
2017-09-02T08:20:05.398Z,81.70
2017-09-02T08:22:32.940Z,81.50
2017-09-02T08:25:00.580Z,81.30
2017-09-02T08:27:28.107Z,80.80
2017-09-02T08:29:55.671Z,80.00
2017-09-02T08:32:23.203Z,80.10
2017-09-02T08:34:50.789Z,80.20
2017-09-02T08:37:18.327Z,79.90
2017-09-02T08:39:45.866Z,80.10
2017-09-02T08:42:13.473Z,79.80
2017-09-02T08:44:41.631Z,79.80
2017-09-02T08:47:09.201Z,78.60
2017-09-02T08:49:36.795Z,77.50
2017-09-02T08:52:04.357Z,77.90
2017-09-02T08:54:31.960Z,76.30
2017-09-02T08:56:59.585Z,75.80
2017-09-02T08:59:27.131Z,75.60
2017-09-02T09:01:54.693Z,74.10
2017-09-02T09:04:22.911Z,73.10
2017-09-02T09:06:50.449Z,72.30
2017-09-02T09:09:17.987Z,71.40
2017-09-02T09:11:45.549Z,71.10
2017-09-02T09:14:13.097Z,68.90
2017-09-02T09:16:40.684Z,67.10
2017-09-02T09:19:08.225Z,65.40
2017-09-02T09:21:35.772Z,65.90
2017-09-02T09:24:03.314Z,65.90
2017-09-02T09:26:30.818Z,66.10
2017-09-02T09:28:58.380Z,63.60
2017-09-02T09:31:25.907Z,63.90
2017-09-02T09:33:53.488Z,63.20
2017-09-02T09:36:21.038Z,61.90
2017-09-02T09:38:48.585Z,62.70
2017-09-02T09:41:16.127Z,64.00
2017-09-02T09:43:43.659Z,61.30
2017-09-02T09:46:11.208Z,62.00
2017-09-02T09:48:38.783Z,61.80
2017-09-02T09:51:06.302Z,60.50
2017-09-02T09:53:33.796Z,62.50
2017-09-02T09:56:01.345Z,61.90
2017-09-02T09:58:28.895Z,61.80
2017-09-02T10:00:56.434Z,59.40
2017-09-02T10:03:23.973Z,59.30
2017-09-02T10:05:51.535Z,60.20
2017-09-02T10:08:19.039Z,61.40
2017-09-02T10:10:46.568Z,61.50
2017-09-02T10:13:14.128Z,61.70
2017-09-02T10:15:41.711Z,61.20
2017-09-02T10:18:09.218Z,57.70
2017-09-02T10:20:36.740Z,57.30
2017-09-02T10:23:04.304Z,59.70
2017-09-02T10:25:31.852Z,59.50
2017-09-02T10:27:59.376Z,59.70
2017-09-02T10:30:26.892Z,59.70
2017-09-02T10:32:54.503Z,60.80
2017-09-02T10:35:22.132Z,61.90
2017-09-02T10:37:49.768Z,58.90
2017-09-02T10:40:17.305Z,58.40
2017-09-02T10:42:44.800Z,58.50
2017-09-02T10:45:12.335Z,56.20
2017-09-02T10:47:39.863Z,55.20
2017-09-02T10:50:07.410Z,54.50
2017-09-02T10:52:34.945Z,54.10
2017-09-02T10:55:02.468Z,56.20
2017-09-02T10:57:30.216Z,54.60
2017-09-02T10:59:57.746Z,55.10
2017-09-02T11:02:25.345Z,55.50
2017-09-02T11:04:52.901Z,56.60
2017-09-02T11:07:20.476Z,56.90
2017-09-02T11:09:47.988Z,56.20
2017-09-02T11:12:15.523Z,55.30
2017-09-02T11:14:43.072Z,54.40
2017-09-02T11:17:10.639Z,54.90
2017-09-02T11:19:38.163Z,54.40
2017-09-02T11:22:05.677Z,55.30
2017-09-02T11:24:34.112Z,55.90
2017-09-02T11:27:01.661Z,54.30
2017-09-02T11:29:29.224Z,53.30
2017-09-02T11:31:56.778Z,54.60
2017-09-02T11:34:24.440Z,55.20
2017-09-02T11:36:51.997Z,56.60
2017-09-02T11:39:19.558Z,56.80
2017-09-02T11:41:47.091Z,55.10
2017-09-02T11:44:14.605Z,55.50
2017-09-02T11:46:42.127Z,53.20
2017-09-02T11:49:09.629Z,52.20
2017-09-02T11:51:37.161Z,52.50
2017-09-02T11:54:04.671Z,51.70
2017-09-02T11:56:32.162Z,54.60
2017-09-02T11:58:59.677Z,54.20
2017-09-02T12:01:27.183Z,53.40
2017-09-02T12:03:54.709Z,53.30
2017-09-02T12:06:22.241Z,54.40
2017-09-02T12:08:49.766Z,54.50
2017-09-02T12:11:17.271Z,52.90
2017-09-02T12:13:44.806Z,49.30
2017-09-02T12:16:12.306Z,50.00
2017-09-02T12:18:39.833Z,50.50
2017-09-02T12:21:07.360Z,48.20
2017-09-02T12:23:34.884Z,48.80
2017-09-02T12:26:02.381Z,50.00
2017-09-02T12:28:29.935Z,51.10
2017-09-02T12:30:57.463Z,52.40
2017-09-02T12:33:24.966Z,52.80
2017-09-02T12:35:52.499Z,53.50
2017-09-02T12:38:20.031Z,52.80
2017-09-02T12:40:47.572Z,53.80
2017-09-02T12:43:15.116Z,53.30
2017-09-02T12:45:42.654Z,53.20
2017-09-02T12:48:13.020Z,52.20
2017-09-02T12:50:40.563Z,52.30
2017-09-02T12:53:08.082Z,52.10
2017-09-02T12:55:35.637Z,51.70
2017-09-02T12:58:03.135Z,48.90
2017-09-02T13:00:30.674Z,48.80
2017-09-02T13:02:58.217Z,48.80
2017-09-02T13:05:25.741Z,49.00
2017-09-02T13:07:53.257Z,48.90
2017-09-02T13:10:20.796Z,48.90
2017-09-02T13:12:48.326Z,49.10
2017-09-02T13:15:15.886Z,50.20
2017-09-02T13:17:43.648Z,49.60
2017-09-02T13:20:11.297Z,50.20
2017-09-02T13:22:40.480Z,51.40
2017-09-02T13:25:08.178Z,50.50
2017-09-02T13:27:35.940Z,49.90
2017-09-02T13:30:03.566Z,50.40
2017-09-02T13:32:31.388Z,50.70
2017-09-02T13:34:58.928Z,51.00
2017-09-02T13:37:26.506Z,50.90
2017-09-02T13:39:54.183Z,48.60
2017-09-02T13:42:22.141Z,48.60
2017-09-02T13:44:49.877Z,48.90
2017-09-02T13:47:17.497Z,47.90
2017-09-02T13:49:45.075Z,48.70
2017-09-02T13:52:12.644Z,49.00
2017-09-02T13:54:40.196Z,47.10
2017-09-02T13:57:07.983Z,48.00
2017-09-02T13:59:35.625Z,46.60
2017-09-02T14:02:03.243Z,48.00
2017-09-02T14:04:30.765Z,49.00
2017-09-02T14:06:58.273Z,49.60
2017-09-02T14:09:25.786Z,49.80
2017-09-02T14:11:53.407Z,49.20
2017-09-02T14:14:20.949Z,50.40
2017-09-02T14:16:48.586Z,49.20
2017-09-02T14:19:16.109Z,47.50
2017-09-02T14:21:43.681Z,47.40
2017-09-02T14:24:11.288Z,47.40
2017-09-02T14:26:38.848Z,47.50
2017-09-02T14:29:06.402Z,48.20
2017-09-02T14:31:33.924Z,47.20
2017-09-02T14:34:01.522Z,47.40
2017-09-02T14:36:29.043Z,48.10
2017-09-02T14:38:56.705Z,48.70
2017-09-02T14:41:24.268Z,50.10
2017-09-02T14:43:52.908Z,50.10
2017-09-02T14:46:20.407Z,50.90
2017-09-02T14:48:48.017Z,51.70
2017-09-02T14:51:15.568Z,52.10
2017-09-02T14:53:43.100Z,51.60
2017-09-02T14:56:10.685Z,50.10
2017-09-02T14:58:38.195Z,48.30
2017-09-02T15:01:05.723Z,48.00
2017-09-02T15:03:33.271Z,46.90
2017-09-02T15:06:00.835Z,48.80
2017-09-02T15:08:28.395Z,50.30
2017-09-02T15:10:55.964Z,52.50
2017-09-02T15:13:23.555Z,52.90
2017-09-02T15:15:51.173Z,52.60
2017-09-02T15:18:18.683Z,51.20
2017-09-02T15:20:46.675Z,51.40
2017-09-02T15:23:14.297Z,51.50
2017-09-02T15:25:42.108Z,53.30
2017-09-02T15:28:09.680Z,55.20
2017-09-02T15:30:37.193Z,55.50
2017-09-02T15:33:04.823Z,57.00
2017-09-02T15:35:32.387Z,56.20
2017-09-02T15:37:59.971Z,57.00
2017-09-02T15:40:27.571Z,57.30
2017-09-02T15:42:55.179Z,57.60
2017-09-02T15:45:22.814Z,55.90
2017-09-02T15:47:50.418Z,54.50
2017-09-02T15:50:18.018Z,53.90
2017-09-02T15:52:45.592Z,54.00
2017-09-02T15:55:13.215Z,52.80
2017-09-02T15:57:40.806Z,53.30
2017-09-02T16:00:08.371Z,53.40
2017-09-02T16:02:36.030Z,53.90
2017-09-02T16:05:03.692Z,54.30
2017-09-02T16:07:31.299Z,54.40
2017-09-02T16:09:58.891Z,55.80
2017-09-02T16:12:26.496Z,56.10
2017-09-02T16:14:54.168Z,56.20
2017-09-02T16:17:21.826Z,56.00
2017-09-02T16:19:49.414Z,55.00
2017-09-02T16:22:16.953Z,55.50
2017-09-02T16:24:44.488Z,55.40
2017-09-02T16:27:12.007Z,56.60
2017-09-02T16:29:39.537Z,56.60
2017-09-02T16:32:07.084Z,57.20
2017-09-02T16:34:34.630Z,58.00
2017-09-02T16:37:02.223Z,58.40
2017-09-02T16:39:29.776Z,59.00
2017-09-02T16:41:57.399Z,59.80
2017-09-02T16:44:24.970Z,60.40
2017-09-02T16:49:43.418Z,61.90
2017-09-02T16:52:10.954Z,62.70
2017-09-02T16:54:38.457Z,63.30
2017-09-02T16:57:05.996Z,64.10
2017-09-02T16:59:34.319Z,64.10
2017-09-02T17:02:01.894Z,64.00
2017-09-02T17:04:29.485Z,63.80
2017-09-02T17:06:57.342Z,64.40
2017-09-02T17:09:24.917Z,63.90
2017-09-02T17:11:52.690Z,63.90
2017-09-02T17:14:20.332Z,63.70
2017-09-02T17:16:47.985Z,64.10
2017-09-02T17:19:15.595Z,64.60
2017-09-02T17:21:43.198Z,65.00
2017-09-02T17:24:10.728Z,65.50
2017-09-02T17:26:38.492Z,65.80
2017-09-02T17:29:06.054Z,65.00
2017-09-02T17:31:33.637Z,64.40
2017-09-02T17:34:01.346Z,64.10
2017-09-02T17:36:28.868Z,64.40
2017-09-02T17:38:56.420Z,65.10
2017-09-02T17:41:23.956Z,65.40
2017-09-02T17:43:51.640Z,65.70
2017-09-02T17:46:19.205Z,66.00
2017-09-02T17:48:46.775Z,65.90
2017-09-02T17:51:14.387Z,65.80
2017-09-02T17:53:41.985Z,66.20
2017-09-02T17:56:10.733Z,66.70
2017-09-02T17:58:38.288Z,66.60
2017-09-02T18:01:05.874Z,66.60
2017-09-02T18:03:33.420Z,66.50
2017-09-02T18:06:01.318Z,66.60
2017-09-02T18:08:28.894Z,67.10
2017-09-02T18:10:56.547Z,67.80
2017-09-02T18:13:24.196Z,68.60
2017-09-02T18:15:51.895Z,69.20
2017-09-02T18:18:19.547Z,69.50
2017-09-02T18:20:47.202Z,70.20
2017-09-02T18:23:14.961Z,70.50
2017-09-02T18:25:43.537Z,70.80
2017-09-02T18:28:11.245Z,71.10
2017-09-02T18:30:40.041Z,71.40
2017-09-02T18:33:07.898Z,71.40
2017-09-02T18:35:35.555Z,71.70
2017-09-02T18:38:03.226Z,72.00
2017-09-02T18:40:31.036Z,72.40
2017-09-02T18:42:59.729Z,72.50
2017-09-02T18:45:27.387Z,72.60
2017-09-02T18:47:55.196Z,72.80
2017-09-02T18:50:22.954Z,73.00
2017-09-02T18:52:50.925Z,73.30
2017-09-02T18:55:18.859Z,73.60
2017-09-02T18:57:46.613Z,73.90
2017-09-02T19:00:14.308Z,74.10
2017-09-02T19:02:41.993Z,74.20
2017-09-02T19:05:09.729Z,74.50
2017-09-02T19:07:37.369Z,74.70
2017-09-02T19:10:05.173Z,74.90
2017-09-02T19:12:33.183Z,75.20
2017-09-02T19:15:00.771Z,75.30
2017-09-02T19:17:28.418Z,75.50
2017-09-02T19:19:57.226Z,75.70
2017-09-02T19:22:25.291Z,75.70
2017-09-02T19:24:53.361Z,75.70
2017-09-02T19:27:20.914Z,75.80
2017-09-02T19:29:48.516Z,76.10
2017-09-02T19:32:16.132Z,76.50
2017-09-02T19:34:43.655Z,76.60
2017-09-02T19:37:11.204Z,76.80
2017-09-02T19:39:38.761Z,77.00
2017-09-02T19:42:06.443Z,77.10
2017-09-02T19:44:34.002Z,77.40
2017-09-02T19:47:01.583Z,77.40
2017-09-02T19:49:29.107Z,77.50
2017-09-02T19:51:56.664Z,77.80
2017-09-02T19:54:24.211Z,78.10
2017-09-02T19:56:51.933Z,78.20
2017-09-02T19:59:19.497Z,78.30
2017-09-02T20:01:47.069Z,78.50
2017-09-02T20:04:14.589Z,78.60
2017-09-02T20:06:45.686Z,78.70
2017-09-02T20:09:13.290Z,78.80
2017-09-02T20:11:40.893Z,79.00
2017-09-02T20:14:08.520Z,79.10
2017-09-02T20:16:36.040Z,79.30
2017-09-02T20:19:03.601Z,79.40
2017-09-02T20:21:31.116Z,79.70
2017-09-02T20:24:00.704Z,79.80
2017-09-02T20:26:28.282Z,80.00
2017-09-02T20:28:55.843Z,79.80
2017-09-02T20:31:23.400Z,79.80
2017-09-02T20:33:50.946Z,79.90
2017-09-02T20:36:18.468Z,80.10
2017-09-02T20:38:45.984Z,80.40
2017-09-02T20:41:13.525Z,80.60
2017-09-02T20:43:41.125Z,80.70
2017-09-02T20:46:08.644Z,80.80
2017-09-02T20:48:36.221Z,81.00
2017-09-02T20:51:03.776Z,81.00
2017-09-02T20:53:31.314Z,81.00
2017-09-02T20:55:58.878Z,81.00
2017-09-02T20:58:26.404Z,81.20
2017-09-02T21:00:53.958Z,81.20
2017-09-02T21:03:21.527Z,81.20
2017-09-02T21:05:49.100Z,81.20
2017-09-02T21:08:16.636Z,81.90
2017-09-02T21:10:44.170Z,81.40
2017-09-02T21:13:11.800Z,81.70
2017-09-02T21:15:39.697Z,81.60
2017-09-02T21:18:07.880Z,81.70
2017-09-02T21:20:35.429Z,81.70
2017-09-02T21:23:03.055Z,81.80
2017-09-02T21:25:30.559Z,81.80
2017-09-02T21:27:58.113Z,81.80
2017-09-02T21:30:25.826Z,82.00
2017-09-02T21:32:53.532Z,82.00
2017-09-02T21:35:21.370Z,82.10
2017-09-02T21:37:48.914Z,82.20
2017-09-02T21:40:16.425Z,82.20
2017-09-02T21:42:43.975Z,82.10
2017-09-02T21:45:11.485Z,82.00
2017-09-02T21:47:39.042Z,82.00
2017-09-02T21:50:06.585Z,82.00
2017-09-02T21:52:34.171Z,82.10
2017-09-02T21:55:01.684Z,82.20
2017-09-02T21:57:30.059Z,82.10
2017-09-02T21:59:57.621Z,82.10
2017-09-02T22:02:25.145Z,82.30
2017-09-02T22:04:52.731Z,82.40
2017-09-02T22:07:20.308Z,82.90
2017-09-02T22:09:47.843Z,83.40
2017-09-02T22:12:15.399Z,83.80
2017-09-02T22:14:42.968Z,83.70
2017-09-02T22:17:10.949Z,83.40
2017-09-02T22:19:40.603Z,84.70
2017-09-02T22:22:08.161Z,84.10
2017-09-02T22:24:35.710Z,84.50
2017-09-02T22:27:03.270Z,85.00
2017-09-02T22:29:30.828Z,85.20
2017-09-02T22:31:58.389Z,85.00
2017-09-02T22:34:25.904Z,84.90
2017-09-02T22:36:53.474Z,84.60
2017-09-02T22:39:21.033Z,84.80
2017-09-02T22:41:48.557Z,84.70
2017-09-02T22:44:16.084Z,84.40
2017-09-02T22:46:43.681Z,84.80
2017-09-02T22:49:11.318Z,84.70
2017-09-02T22:51:38.876Z,85.20
2017-09-02T22:54:06.420Z,85.00
2017-09-02T22:56:33.985Z,84.70
2017-09-02T22:59:01.564Z,84.70
2017-09-02T23:01:29.138Z,84.40
2017-09-02T23:03:56.716Z,84.20
2017-09-02T23:06:24.339Z,84.30
2017-09-02T23:08:51.881Z,84.10
2017-09-02T23:11:19.440Z,84.30
2017-09-02T23:13:46.982Z,84.80
2017-09-02T23:16:14.538Z,85.20
2017-09-02T23:18:42.077Z,85.30
2017-09-02T23:21:09.621Z,85.70
2017-09-02T23:23:37.204Z,86.00
2017-09-02T23:26:04.783Z,86.10
2017-09-02T23:28:32.320Z,85.90
2017-09-02T23:30:59.902Z,85.70
2017-09-02T23:33:27.418Z,85.50
2017-09-02T23:35:54.920Z,85.10
2017-09-02T23:38:22.460Z,84.90
2017-09-02T23:40:49.984Z,84.70
2017-09-02T23:43:17.507Z,84.50
2017-09-02T23:45:45.031Z,84.60
2017-09-02T23:48:12.544Z,84.50
2017-09-02T23:50:40.106Z,84.50
2017-09-02T23:53:07.675Z,84.40
2017-09-02T23:55:35.191Z,84.90
2017-09-02T23:58:02.906Z,84.80
